createdAt,value
2022-09-01T00:01:50.197Z,17.65
2022-09-01T00:04:21.136Z,14.77
2022-09-01T00:06:48.952Z,16.98
2022-09-01T00:09:18.749Z,24.75
2022-09-01T00:11:50.513Z,18.13
2022-09-01T00:14:30.405Z,16.20
2022-09-01T00:17:00.105Z,15.90
2022-09-01T00:19:27.359Z,17.67
2022-09-01T00:21:55.095Z,20.23
2022-09-01T00:24:22.347Z,23.35
2022-09-01T00:26:49.339Z,28.45
2022-09-01T00:29:16.364Z,19.95
2022-09-01T00:31:43.843Z,23.98
2022-09-01T00:34:11.290Z,23.52
2022-09-01T00:36:38.120Z,24.08
2022-09-01T00:39:06.874Z,30.00
2022-09-01T00:41:38.235Z,28.88
2022-09-01T00:44:13.480Z,37.13
2022-09-01T00:46:55.458Z,31.85
2022-09-01T00:49:35.714Z,31.25
2022-09-01T00:52:13.706Z,37.42
2022-09-01T00:54:44.860Z,57.38
2022-09-01T00:57:13.187Z,36.53
2022-09-01T00:59:50.972Z,35.03
2022-09-01T01:02:17.646Z,33.65
2022-09-01T01:04:44.400Z,33.75
2022-09-01T01:07:12.618Z,22.17
2022-09-01T01:09:43.254Z,31.17
2022-09-01T01:12:18.663Z,24.50
2022-09-01T01:14:50.468Z,25.67
2022-09-01T01:17:19.737Z,29.92
2022-09-01T01:20:08.851Z,28.88
2022-09-01T01:22:58.757Z,21.40
2022-09-01T01:25:26.481Z,22.73
2022-09-01T01:28:14.242Z,20.60
2022-09-01T01:30:52.372Z,25.73
2022-09-01T01:33:22.670Z,31.15
2022-09-01T01:35:51.768Z,25.55
2022-09-01T01:38:21.572Z,19.50
2022-09-01T01:40:49.498Z,21.17
2022-09-01T01:43:20.012Z,20.40
2022-09-01T01:46:02.478Z,23.50
2022-09-01T01:48:30.223Z,19.13
2022-09-01T01:51:00.804Z,27.30
2022-09-01T01:53:28.948Z,24.42
2022-09-01T01:55:56.063Z,22.70
2022-09-01T01:58:24.527Z,22.00
2022-09-01T02:00:54.251Z,30.25
2022-09-01T02:03:25.054Z,20.98
2022-09-01T02:05:53.502Z,22.30
2022-09-01T02:08:22.857Z,18.70
2022-09-01T02:10:51.701Z,14.95
2022-09-01T02:13:20.958Z,16.08
2022-09-01T02:15:53.822Z,17.33
2022-09-01T02:18:36.027Z,19.98
2022-09-01T02:21:10.587Z,22.65
2022-09-01T02:23:41.060Z,21.73
2022-09-01T02:26:18.522Z,23.13
2022-09-01T02:28:54.221Z,22.85
2022-09-01T02:31:23.023Z,21.40
2022-09-01T02:33:49.794Z,23.48
2022-09-01T02:36:19.289Z,21.38
2022-09-01T02:38:53.276Z,23.98
2022-09-01T02:41:23.722Z,22.25
2022-09-01T02:43:50.992Z,21.25
2022-09-01T02:46:20.304Z,24.63
2022-09-01T02:48:51.362Z,27.45
2022-09-01T02:51:20.774Z,23.20
2022-09-01T02:53:53.029Z,26.27
2022-09-01T02:56:25.015Z,25.38
2022-09-01T02:58:52.998Z,28.02
2022-09-01T03:01:32.017Z,26.10
2022-09-01T03:04:01.800Z,24.40
2022-09-01T03:06:31.419Z,20.65
2022-09-01T03:09:01.878Z,24.13
2022-09-01T03:11:31.559Z,20.90
2022-09-01T03:13:58.513Z,24.55
2022-09-01T03:16:25.182Z,35.83
2022-09-01T03:18:52.568Z,23.80
2022-09-01T03:21:20.779Z,23.40
2022-09-01T03:23:48.444Z,32.20
2022-09-01T03:26:18.650Z,23.38
2022-09-01T03:28:46.286Z,21.85
2022-09-01T03:31:13.137Z,28.05
2022-09-01T03:33:40.827Z,29.33
2022-09-01T03:36:14.771Z,32.25
2022-09-01T03:38:43.939Z,32.38
2022-09-01T03:41:13.336Z,29.90
2022-09-01T03:43:47.038Z,27.58
2022-09-01T03:46:24.370Z,37.80
2022-09-01T03:48:58.492Z,33.42
2022-09-01T03:51:26.009Z,35.60
2022-09-01T03:53:55.010Z,32.00
2022-09-01T03:56:26.281Z,33.78
2022-09-01T03:58:56.215Z,37.40
2022-09-01T04:01:25.033Z,42.78
2022-09-01T04:03:52.991Z,33.33
2022-09-01T04:06:20.619Z,42.33
2022-09-01T04:08:47.582Z,54.83
2022-09-01T04:11:18.612Z,44.72
2022-09-01T04:13:46.330Z,40.88
2022-09-01T04:16:57.494Z,46.10
2022-09-01T04:19:26.823Z,50.58
2022-09-01T04:21:56.997Z,62.78
2022-09-01T04:24:28.375Z,82.50
2022-09-01T04:27:01.748Z,84.60
2022-09-01T04:29:29.790Z,81.72
2022-09-01T04:32:03.619Z,77.18
2022-09-01T04:34:37.274Z,118.28
2022-09-01T04:37:13.217Z,111.10
2022-09-01T04:39:40.304Z,126.32
2022-09-01T04:42:09.222Z,157.73
2022-09-01T04:44:36.667Z,140.10
2022-09-01T04:47:03.592Z,185.45
2022-09-01T04:49:33.758Z,188.90
2022-09-01T04:52:00.721Z,178.00
2022-09-01T04:54:27.368Z,209.38
2022-09-01T04:56:55.023Z,226.48
2022-09-01T04:59:24.178Z,218.38
2022-09-01T05:01:51.112Z,216.15
2022-09-01T05:04:24.472Z,241.50
2022-09-01T05:06:59.801Z,209.95
2022-09-01T05:09:29.068Z,233.23
2022-09-01T05:11:57.680Z,246.65
2022-09-01T05:14:25.636Z,279.95
2022-09-01T05:16:58.808Z,302.65
2022-09-01T05:19:28.938Z,302.85
2022-09-01T05:21:57.895Z,297.33
2022-09-01T05:24:30.194Z,265.38
2022-09-01T05:26:57.739Z,267.77
2022-09-01T05:29:25.588Z,300.08
2022-09-01T05:31:53.179Z,304.75
2022-09-01T05:34:26.733Z,348.08
2022-09-01T05:36:56.056Z,347.05
2022-09-01T05:39:22.887Z,359.35
2022-09-01T05:41:49.883Z,380.30
2022-09-01T05:44:17.017Z,380.38
2022-09-01T05:46:44.678Z,359.30
2022-09-01T05:49:16.894Z,350.92
2022-09-01T05:51:50.886Z,344.08
2022-09-01T05:54:27.383Z,336.63
2022-09-01T05:56:57.765Z,324.92
2022-09-01T05:59:31.550Z,342.10
2022-09-01T06:01:58.838Z,339.27
2022-09-01T06:04:26.861Z,318.70
2022-09-01T06:07:05.776Z,335.88
2022-09-01T06:09:38.175Z,303.60
2022-09-01T06:12:06.744Z,298.45
2022-09-01T06:14:34.134Z,324.98
2022-09-01T06:17:00.999Z,297.65
2022-09-01T06:19:28.471Z,298.52
2022-09-01T06:21:56.874Z,299.63
2022-09-01T06:24:23.592Z,236.75
2022-09-01T06:26:50.368Z,195.63
2022-09-01T06:29:17.059Z,207.15
2022-09-01T06:31:51.745Z,241.70
2022-09-01T06:34:19.595Z,263.40
2022-09-01T06:36:49.583Z,233.73
2022-09-01T06:39:26.601Z,217.05
2022-09-01T06:41:54.776Z,158.35
2022-09-01T06:44:24.959Z,165.50
2022-09-01T06:46:52.625Z,163.35
2022-09-01T06:49:21.496Z,175.88
2022-09-01T06:51:49.688Z,191.55
2022-09-01T06:54:19.927Z,129.90
2022-09-01T06:56:51.363Z,127.50
2022-09-01T06:59:19.924Z,136.18
2022-09-01T07:01:49.028Z,105.75
2022-09-01T07:04:21.480Z,76.30
2022-09-01T07:07:00.097Z,44.50
2022-09-01T07:09:47.098Z,41.45
2022-09-01T07:12:27.017Z,38.45
2022-09-01T07:17:43.159Z,26.10
2022-09-01T07:20:27.261Z,23.05
2022-09-01T07:23:04.515Z,17.90
2022-09-01T07:25:48.423Z,14.90
2022-09-01T07:28:25.478Z,15.60
2022-09-01T07:30:55.260Z,26.52
2022-09-01T07:33:44.171Z,14.95
2022-09-01T07:36:27.177Z,12.75
2022-09-01T07:44:28.821Z,19.58
2022-09-01T07:52:31.558Z,9.00
2022-09-01T07:54:58.200Z,9.00
2022-09-01T07:57:24.945Z,5.30
2022-09-01T07:59:55.637Z,4.63
2022-09-01T08:02:22.414Z,9.38
2022-09-01T08:04:49.124Z,7.28
2022-09-01T08:07:16.366Z,7.70
2022-09-01T08:09:44.114Z,2.50
2022-09-01T08:12:11.489Z,2.53
2022-09-01T08:14:38.208Z,4.35
2022-09-01T08:19:53.597Z,2.22
2022-09-01T08:22:25.226Z,2.47
2022-09-01T08:24:53.433Z,3.05
2022-09-01T08:27:20.787Z,2.45
2022-09-01T08:29:48.833Z,1.58
2022-09-01T08:32:15.504Z,2.70
2022-09-01T08:34:43.517Z,4.40
2022-09-01T08:37:10.075Z,3.15
2022-09-01T08:39:36.683Z,2.85
2022-09-01T08:42:41.696Z,2.08
2022-09-01T08:45:11.061Z,3.85
2022-09-01T08:47:58.366Z,8.18
2022-09-01T08:50:25.535Z,4.28
2022-09-01T08:53:10.749Z,4.85
2022-09-01T08:55:43.910Z,3.25
2022-09-01T08:58:15.202Z,0.88
2022-09-01T09:00:50.516Z,0.93
2022-09-01T09:03:40.578Z,1.27
2022-09-01T09:06:16.399Z,0.90
2022-09-01T09:08:58.019Z,1.02
2022-09-01T09:11:27.396Z,1.25
2022-09-01T09:13:59.885Z,1.17
2022-09-01T09:16:32.686Z,0.70
2022-09-01T09:19:06.495Z,1.30
2022-09-01T09:21:37.421Z,0.85
2022-09-01T09:24:10.551Z,0.52
2022-09-01T09:26:44.791Z,1.33
2022-09-01T09:29:11.649Z,0.70
2022-09-01T09:31:45.898Z,1.30
2022-09-01T09:34:27.808Z,0.88
2022-09-01T09:36:57.025Z,1.65
2022-09-01T09:39:23.906Z,2.15
2022-09-01T09:42:07.822Z,1.23
2022-09-01T09:44:41.431Z,0.93
2022-09-01T09:47:27.258Z,0.70
2022-09-01T09:50:38.164Z,0.88
2022-09-01T09:53:27.251Z,1.75
2022-09-01T09:56:19.804Z,3.55
2022-09-01T09:58:48.756Z,0.85
2022-09-01T10:01:30.706Z,1.45
2022-09-01T10:04:00.510Z,1.27
2022-09-01T10:06:36.195Z,0.63
2022-09-01T10:11:35.619Z,1.23
2022-09-01T10:14:06.248Z,0.73
2022-09-01T10:16:37.668Z,0.65
2022-09-01T10:19:12.563Z,1.27
2022-09-01T10:21:42.691Z,0.57
2022-09-01T10:24:17.356Z,2.92
2022-09-01T10:26:52.974Z,0.63
2022-09-01T10:29:34.758Z,2.72
2022-09-01T10:32:30.758Z,0.82
2022-09-01T10:34:56.158Z,3.25
2022-09-01T10:37:27.635Z,0.75
2022-09-01T10:40:34.707Z,1.42
2022-09-01T10:43:25.224Z,0.75
2022-09-01T10:45:57.903Z,0.95
2022-09-01T10:48:46.230Z,3.17
2022-09-01T10:51:19.204Z,3.42
2022-09-01T10:53:52.598Z,0.70
2022-09-01T10:56:51.339Z,1.73
2022-09-01T10:59:40.104Z,1.42
2022-09-01T11:02:26.971Z,4.07
2022-09-01T11:04:54.505Z,1.00
2022-09-01T11:07:50.084Z,1.40
2022-09-01T11:10:35.794Z,0.65
2022-09-01T11:13:21.759Z,0.70
2022-09-01T11:15:48.951Z,0.90
2022-09-01T11:18:26.075Z,0.90
2022-09-01T11:20:55.426Z,1.05
2022-09-01T11:23:30.611Z,1.60
2022-09-01T11:26:32.406Z,0.70
2022-09-01T11:28:59.518Z,0.60
2022-09-01T11:31:31.143Z,0.98
2022-09-01T11:34:13.841Z,0.80
2022-09-01T11:36:47.416Z,1.25
2022-09-01T11:39:17.853Z,2.38
2022-09-01T11:41:51.747Z,1.00
2022-09-01T11:44:42.769Z,1.17
2022-09-01T11:47:19.181Z,0.55
2022-09-01T11:49:56.990Z,0.47
2022-09-01T11:52:27.973Z,0.70
2022-09-01T11:54:54.739Z,1.50
2022-09-01T11:57:22.955Z,0.80
2022-09-01T11:59:50.384Z,0.60
2022-09-01T12:02:19.049Z,3.95
2022-09-01T12:04:46.354Z,0.60
2022-09-01T12:07:43.089Z,2.38
2022-09-01T12:10:22.035Z,0.70
2022-09-01T12:12:48.592Z,0.45
2022-09-01T12:15:25.343Z,1.25
2022-09-01T12:17:53.691Z,0.50
2022-09-01T12:20:29.405Z,0.75
2022-09-01T12:22:58.387Z,0.68
2022-09-01T12:25:30.399Z,2.17
2022-09-01T12:28:00.147Z,0.75
2022-09-01T12:30:26.894Z,0.38
2022-09-01T12:33:22.809Z,0.43
2022-09-01T12:35:41.886Z,1.20
2022-09-01T12:38:20.735Z,1.25
2022-09-01T12:40:50.336Z,0.40
2022-09-01T12:43:29.239Z,1.02
2022-09-01T12:45:57.447Z,2.50
2022-09-01T12:48:38.069Z,2.05
2022-09-01T12:51:24.532Z,0.45
2022-09-01T12:53:58.550Z,0.70
2022-09-01T12:56:36.167Z,0.40
2022-09-01T12:59:14.143Z,0.93
2022-09-01T13:01:42.978Z,0.70
2022-09-01T13:04:22.381Z,2.28
2022-09-01T13:06:49.839Z,0.77
2022-09-01T13:09:16.446Z,2.28
2022-09-01T13:14:31.721Z,0.60
2022-09-01T13:16:58.340Z,0.60
2022-09-01T13:19:28.814Z,0.65
2022-09-01T13:21:57.347Z,0.30
2022-09-01T13:24:28.688Z,3.30
2022-09-01T13:29:43.822Z,0.47
2022-09-01T13:32:19.336Z,0.35
2022-09-01T13:34:47.334Z,0.90
2022-09-01T13:37:14.123Z,0.45
2022-09-01T13:39:40.671Z,1.20
2022-09-01T13:42:07.390Z,0.47
2022-09-01T13:44:35.425Z,0.85
2022-09-01T13:47:28.780Z,0.40
2022-09-01T13:52:35.766Z,0.50
2022-09-01T13:55:02.438Z,1.00
2022-09-01T13:57:31.526Z,0.35
2022-09-01T14:00:10.997Z,1.02
2022-09-01T14:02:43.062Z,1.00
2022-09-01T14:05:10.529Z,0.30
2022-09-01T14:07:37.524Z,0.10
2022-09-01T14:10:05.070Z,2.33
2022-09-01T14:12:32.587Z,0.40
2022-09-01T14:17:56.229Z,2.00
2022-09-01T14:20:25.796Z,0.50
2022-09-01T14:22:52.705Z,1.55
2022-09-01T14:25:20.629Z,0.30
2022-09-01T14:27:48.996Z,0.82
2022-09-01T14:30:30.461Z,0.45
2022-09-01T14:33:01.533Z,1.77
2022-09-01T14:35:30.738Z,0.40
2022-09-01T14:37:59.004Z,1.50
2022-09-01T14:40:26.070Z,0.73
2022-09-01T14:42:53.191Z,2.10
2022-09-01T14:45:25.513Z,1.55
2022-09-01T14:47:54.930Z,0.30
2022-09-01T14:50:23.684Z,0.40
2022-09-01T14:52:54.412Z,0.22
2022-09-01T14:55:25.721Z,0.65
2022-09-01T14:57:52.465Z,0.28
2022-09-01T15:00:19.883Z,0.20
2022-09-01T15:02:47.421Z,0.30
2022-09-01T15:05:14.566Z,0.55
2022-09-01T15:07:42.715Z,0.32
2022-09-01T15:10:15.792Z,0.20
2022-09-01T15:12:47.135Z,0.30
2022-09-01T15:15:13.862Z,0.70
2022-09-01T15:17:43.344Z,0.47
2022-09-01T15:20:31.429Z,0.43
2022-09-01T15:22:58.691Z,0.40
2022-09-01T15:25:25.601Z,0.20
2022-09-01T15:27:52.602Z,0.40
2022-09-01T15:30:20.251Z,0.57
2022-09-01T15:32:49.079Z,0.68
2022-09-01T15:35:16.203Z,0.95
2022-09-01T15:37:43.409Z,2.67
2022-09-01T15:40:10.492Z,0.57
2022-09-01T15:42:38.180Z,0.30
2022-09-01T15:45:08.329Z,5.30
2022-09-01T15:47:35.415Z,0.50
2022-09-01T15:50:06.955Z,0.65
2022-09-01T15:52:34.767Z,0.32
2022-09-01T15:55:03.257Z,0.65
2022-09-01T15:57:29.864Z,1.30
2022-09-01T15:59:57.402Z,0.30
2022-09-01T16:02:27.743Z,1.42
2022-09-01T16:04:56.759Z,0.52
2022-09-01T16:07:23.770Z,0.52
2022-09-01T16:09:57.867Z,0.45
2022-09-01T16:12:26.527Z,0.60
2022-09-01T16:14:55.189Z,0.65
2022-09-01T16:17:45.173Z,0.60
2022-09-01T16:20:21.833Z,0.43
2022-09-01T16:22:55.516Z,0.75
2022-09-01T16:25:30.035Z,0.68
2022-09-01T16:27:57.598Z,0.70
2022-09-01T16:30:29.119Z,0.93
2022-09-01T16:33:02.754Z,0.35
2022-09-01T16:35:44.797Z,2.65
2022-09-01T16:38:20.582Z,2.03
2022-09-01T16:40:57.904Z,1.15
2022-09-01T16:43:37.574Z,4.97
2022-09-01T16:46:19.471Z,1.35
2022-09-01T16:48:47.199Z,1.65
2022-09-01T16:51:19.126Z,3.50
2022-09-01T16:53:54.147Z,2.45
2022-09-01T16:56:35.574Z,1.85
2022-09-01T16:59:24.756Z,1.65
2022-09-01T17:02:00.038Z,2.70
2022-09-01T17:04:29.434Z,6.15
2022-09-01T17:07:09.110Z,12.80
2022-09-01T17:09:40.713Z,8.80
2022-09-01T17:12:27.580Z,7.18
2022-09-01T17:15:06.866Z,6.57
2022-09-01T17:17:47.789Z,6.32
2022-09-01T17:20:16.237Z,7.18
2022-09-01T17:22:57.060Z,4.63
2022-09-01T17:25:33.717Z,4.70
2022-09-01T17:28:04.393Z,8.20
2022-09-01T17:30:36.246Z,8.60
2022-09-01T17:33:34.546Z,12.93
2022-09-01T17:36:03.941Z,9.65
2022-09-01T17:39:03.291Z,18.95
2022-09-01T17:41:34.367Z,10.30
2022-09-01T17:44:12.854Z,14.85
2022-09-01T17:47:12.015Z,11.13
2022-09-01T17:49:53.321Z,15.95
2022-09-01T17:52:40.773Z,9.07
2022-09-01T17:55:38.186Z,10.80
2022-09-01T17:58:10.355Z,8.23
2022-09-01T18:00:52.852Z,11.52
2022-09-01T18:03:44.032Z,9.05
2022-09-01T18:06:15.700Z,8.15
2022-09-01T18:08:44.822Z,12.18
2022-09-01T18:11:50.474Z,10.80
2022-09-01T18:14:58.424Z,10.55
2022-09-01T18:17:29.068Z,8.40
2022-09-01T18:20:09.929Z,11.05
2022-09-01T18:22:47.336Z,8.93
2022-09-01T18:25:23.068Z,11.85
2022-09-01T18:27:50.058Z,11.73
2022-09-01T18:30:36.360Z,11.45
2022-09-01T18:33:37.139Z,12.18
2022-09-01T18:36:41.249Z,9.93
2022-09-01T18:39:29.466Z,15.93
2022-09-01T18:42:19.091Z,10.40
2022-09-01T18:45:24.801Z,8.82
2022-09-01T18:48:09.156Z,9.93
2022-09-01T18:51:03.454Z,9.68
2022-09-01T18:53:44.642Z,13.27
2022-09-01T18:56:25.090Z,13.45
2022-09-01T18:58:51.761Z,10.05
2022-09-01T19:01:40.882Z,12.23
2022-09-01T19:04:31.926Z,7.70
2022-09-01T19:07:01.711Z,11.35
2022-09-01T19:09:42.542Z,9.57
2022-09-01T19:12:41.211Z,11.18
2022-09-01T19:15:25.725Z,14.43
2022-09-01T19:18:12.817Z,13.48
2022-09-01T19:21:02.620Z,14.00
2022-09-01T19:23:36.066Z,11.68
2022-09-01T19:26:07.635Z,15.68
2022-09-01T19:28:40.196Z,13.05
2022-09-01T19:31:17.940Z,24.00
2022-09-01T19:33:51.070Z,16.20
2022-09-01T19:36:35.575Z,12.98
2022-09-01T19:39:02.524Z,28.15
2022-09-01T19:41:53.721Z,14.23
2022-09-01T19:44:54.898Z,16.63
2022-09-01T19:47:36.915Z,13.45
2022-09-01T19:50:06.445Z,11.27
2022-09-01T19:52:49.425Z,10.90
2022-09-01T19:55:36.650Z,15.07
2022-09-01T19:58:15.131Z,13.70
2022-09-01T20:00:53.519Z,17.42
2022-09-01T20:03:28.805Z,16.77
2022-09-01T20:06:05.046Z,15.98
2022-09-01T20:08:41.776Z,20.88
2022-09-01T20:11:18.879Z,18.70
2022-09-01T20:14:03.399Z,25.20
2022-09-01T20:16:41.708Z,18.20
2022-09-01T20:19:24.418Z,19.02
2022-09-01T20:21:51.073Z,15.27
2022-09-01T20:24:39.635Z,14.50
2022-09-01T20:27:33.987Z,18.35
2022-09-01T20:30:07.600Z,18.35
2022-09-01T20:32:59.807Z,16.85
2022-09-01T20:35:39.941Z,22.83
2022-09-01T20:38:36.741Z,19.02
2022-09-01T20:41:19.499Z,19.33
2022-09-01T20:43:51.725Z,23.02
2022-09-01T20:46:20.554Z,19.00
2022-09-01T20:48:48.023Z,18.70
2022-09-01T20:51:27.615Z,20.38
2022-09-01T20:54:23.181Z,24.95
2022-09-01T20:57:05.030Z,17.85
2022-09-01T21:00:07.947Z,20.95
2022-09-01T21:02:34.686Z,22.35
2022-09-01T21:05:01.303Z,23.38
2022-09-01T21:07:48.721Z,21.45
2022-09-01T21:10:45.207Z,20.27
2022-09-01T21:13:18.964Z,24.48
2022-09-01T21:15:59.268Z,20.02
2022-09-01T21:19:27.471Z,14.73
2022-09-01T21:24:35.472Z,16.00
2022-09-01T21:27:07.590Z,16.85
2022-09-01T21:30:00.288Z,17.25
2022-09-01T21:32:29.211Z,11.63
2022-09-01T21:34:56.635Z,19.60
2022-09-01T21:37:24.827Z,15.18
2022-09-01T21:39:53.902Z,11.63
2022-09-01T21:42:24.065Z,12.93
2022-09-01T21:44:52.102Z,20.80
2022-09-01T21:47:21.703Z,14.65
2022-09-01T21:49:48.350Z,16.45
2022-09-01T21:52:15.021Z,20.45
2022-09-01T21:54:41.683Z,21.08
2022-09-01T21:57:08.307Z,16.48
2022-09-01T21:59:34.978Z,19.08
2022-09-01T22:02:02.128Z,17.75
2022-09-01T22:04:28.718Z,23.00
2022-09-01T22:06:55.345Z,20.45
2022-09-01T22:09:21.985Z,18.67
2022-09-01T22:11:50.453Z,21.02
2022-09-01T22:14:18.514Z,16.40
2022-09-01T22:16:45.117Z,16.73
2022-09-01T22:19:12.169Z,17.08
2022-09-01T22:21:39.845Z,18.25
2022-09-01T22:24:06.721Z,13.68
2022-09-01T22:26:34.283Z,15.57
2022-09-01T22:29:05.625Z,18.80
2022-09-01T22:31:34.734Z,15.02
2022-09-01T22:34:01.297Z,18.73
2022-09-01T22:36:34.755Z,15.18
2022-09-01T22:39:01.857Z,16.70
2022-09-01T22:41:30.634Z,12.65
2022-09-01T22:44:00.181Z,15.82
2022-09-01T22:46:29.252Z,13.07
2022-09-01T22:48:57.361Z,13.25
2022-09-01T22:51:24.970Z,14.23
2022-09-01T22:53:54.293Z,12.23
2022-09-01T22:56:24.168Z,14.93
2022-09-01T22:58:54.313Z,15.68
2022-09-01T23:01:25.238Z,18.25
2022-09-01T23:03:52.376Z,14.68
2022-09-01T23:06:28.149Z,12.70
2022-09-01T23:08:57.223Z,13.35
2022-09-01T23:11:24.593Z,14.20
2022-09-01T23:13:51.689Z,12.60
2022-09-01T23:16:20.675Z,16.65
2022-09-01T23:18:49.029Z,17.02
2022-09-01T23:21:19.323Z,13.70
2022-09-01T23:23:46.685Z,13.07
2022-09-01T23:26:14.476Z,24.85
2022-09-01T23:28:42.886Z,11.88
2022-09-01T23:31:16.874Z,15.90
2022-09-01T23:33:44.037Z,14.77
2022-09-01T23:36:13.861Z,25.88
2022-09-01T23:38:41.277Z,12.73
2022-09-01T23:41:13.984Z,14.00
2022-09-01T23:43:40.654Z,14.55
2022-09-01T23:46:08.095Z,17.60
2022-09-01T23:48:34.767Z,18.77
2022-09-01T23:51:08.654Z,13.02
2022-09-01T23:53:36.520Z,14.27
2022-09-01T23:56:08.027Z,17.45
2022-09-01T23:58:34.751Z,15.63
